Terminal Aerodrome Forecast
Issued by NWS

Home | Current Version | Previous Version | Text Only | Print | Product List | Glossary On
Versions: 1 2 3 4 5 6 7 8 9 10 11 12 13 14
353
FTUS42 KTBW 201725
TAFLAL
TAF
KLAL 201725Z 2018/2118 19009KT P6SM SCT040 SCT250
     FM210200 VRB03KT P6SM SCT250
     FM210900 17004KT 2SM BR BKN008
     FM211400 17012KT P6SM SCT040 BKN120=

USA.gov is the U.S. government's official web portal to all federal, state and local government web resources and services.